Time;durP1;ratioP1;P1;durP2;ratioP2;P2;SDS_P1;SDS_P2;PMS_P1;PMS_P2;Temp;Humidity;BMP_temperature;BMP_pressure;BME280_temperature;BME280_humidity;BME280_pressure;Samples;Min_cycle;Max_cycle;Signal;HPM_P1;HPM_P2
2023/09/05 00:00:19;;;;;;;5.25;3.13;;;22.30;58.50;;;;;;5075381;28;20036;-69
2023/09/05 00:02:56;;;;;;;5.13;3.25;;;22.20;58.70;;;;;;5075625;28;20040;-67
2023/09/05 00:05:23;;;;;;;9.82;3.25;;;22.20;58.20;;;;;;5075973;28;20445;-69
2023/09/05 00:07:54;;;;;;;7.55;3.60;;;22.20;57.70;;;;;;5074919;28;20083;-68
2023/09/05 00:10:23;;;;;;;5.68;3.30;;;22.20;57.50;;;;;;5075246;28;20126;-68
2023/09/05 00:12:51;;;;;;;6.93;3.20;;;22.10;57.60;;;;;;5075335;28;20017;-69
2023/09/05 00:15:19;;;;;;;7.45;3.20;;;22.20;56.70;;;;;;5075210;28;20350;-69
2023/09/05 00:17:47;;;;;;;4.93;3.00;;;22.10;56.80;;;;;;5075089;28;20350;-67
2023/09/05 00:20:15;;;;;;;6.63;3.20;;;22.10;56.90;;;;;;5075735;28;20024;-68
2023/09/05 00:22:42;;;;;;;8.48;3.35;;;22.00;56.90;;;;;;5075359;28;20054;-69
2023/09/05 00:25:11;;;;;;;8.45;3.13;;;22.00;56.70;;;;;;5075074;28;20050;-68
2023/09/05 00:27:40;;;;;;;8.68;3.13;;;22.00;55.90;;;;;;5075048;28;20039;-69
2023/09/05 00:30:13;;;;;;;8.80;2.97;;;22.00;55.70;;;;;;5075038;28;20025;-68
2023/09/05 00:32:40;;;;;;;8.35;3.90;;;22.00;55.60;;;;;;5075330;28;20477;-69
2023/09/05 00:35:11;;;;;;;6.82;3.13;;;21.90;56.10;;;;;;5075573;28;20315;-67
2023/09/05 00:37:37;;;;;;;5.28;2.90;;;21.90;55.50;;;;;;5075074;28;20361;-69
2023/09/05 00:40:04;;;;;;;9.00;3.40;;;21.90;56.00;;;;;;5075227;28;20032;-68
2023/09/05 00:42:30;;;;;;;6.20;3.33;;;21.90;56.10;;;;;;5074930;28;20056;-69
2023/09/05 00:44:56;;;;;;;7.88;3.30;;;21.80;56.10;;;;;;5075021;28;20154;-69
2023/09/05 00:47:28;;;;;;;7.35;2.80;;;21.90;55.80;;;;;;5075160;28;20032;-69
2023/09/05 00:49:55;;;;;;;7.43;2.97;;;21.90;56.10;;;;;;5057193;28;20024;-69
2023/09/05 00:52:25;;;;;;;5.18;2.75;;;21.90;56.10;;;;;;5074907;28;20455;-68
2023/09/05 00:54:54;;;;;;;5.55;3.03;;;21.80;55.70;;;;;;5074756;28;20039;-69
2023/09/05 00:57:21;;;;;;;6.40;3.20;;;21.80;56.00;;;;;;5057148;28;20025;-68
2023/09/05 00:59:47;;;;;;;7.15;3.60;;;21.80;56.10;;;;;;5075310;28;20108;-69
2023/09/05 01:02:14;;;;;;;6.70;3.08;;;21.80;55.70;;;;;;5074710;28;20082;-68
2023/09/05 01:04:42;;;;;;;8.55;3.25;;;21.80;55.70;;;;;;5075000;28;20031;-68
2023/09/05 01:07:20;;;;;;;7.40;3.20;;;21.80;55.90;;;;;;5053363;28;20068;-71
2023/09/05 01:10:04;;;;;;;9.40;3.22;;;21.80;55.70;;;;;;5058927;28;20032;-67
2023/09/05 01:12:32;;;;;;;5.97;2.85;;;21.80;55.70;;;;;;5058816;28;20033;-70
2023/09/05 01:14:57;;;;;;;8.15;3.08;;;21.80;55.60;;;;;;5059152;28;20497;-71
2023/09/05 01:17:23;;;;;;;7.70;3.78;;;21.80;55.50;;;;;;5059026;28;20017;-70
2023/09/05 01:19:53;;;;;;;4.97;2.78;;;21.80;55.10;;;;;;5058576;28;20029;-67
2023/09/05 01:22:34;;;;;;;8.18;3.30;;;21.80;55.20;;;;;;5057607;28;20021;-68
2023/09/05 01:25:00;;;;;;;5.03;3.20;;;21.80;54.90;;;;;;5058667;28;20135;-69
2023/09/05 01:27:28;;;;;;;5.63;2.60;;;21.80;55.00;;;;;;5058303;28;20028;-70
2023/09/05 01:29:55;;;;;;;4.50;2.80;;;21.80;55.30;;;;;;5058276;28;20037;-70
2023/09/05 01:32:21;;;;;;;5.90;2.65;;;21.80;55.30;;;;;;5058606;28;20021;-70
2023/09/05 01:34:49;;;;;;;7.47;2.88;;;21.80;54.90;;;;;;5057208;28;20075;-67
2023/09/05 01:37:18;;;;;;;7.97;2.80;;;21.90;54.80;;;;;;5058193;28;20036;-68
2023/09/05 01:42:14;;;;;;;7.07;2.97;;;21.90;55.00;;;;;;5058456;28;20025;-68
2023/09/05 01:44:40;;;;;;;5.38;2.90;;;21.80;55.00;;;;;;5058489;28;20028;-68
2023/09/05 01:47:11;;;;;;;5.65;2.90;;;21.90;55.00;;;;;;5057944;28;20078;-68
2023/09/05 01:49:37;;;;;;;6.45;3.05;;;21.80;55.10;;;;;;5057943;28;20021;-68
2023/09/05 01:52:03;;;;;;;6.95;3.13;;;21.80;55.20;;;;;;5058174;28;20040;-68
2023/09/05 01:54:29;;;;;;;7.80;2.92;;;21.80;55.10;;;;;;5058130;28;20427;-68
2023/09/05 01:56:55;;;;;;;5.30;2.67;;;21.80;55.10;;;;;;5057814;28;20017;-69
2023/09/05 01:59:21;;;;;;;6.45;3.00;;;21.80;55.50;;;;;;5058050;28;20020;-68
2023/09/05 02:01:48;;;;;;;7.63;3.20;;;21.80;55.70;;;;;;5057718;28;20025;-71
2023/09/05 02:04:14;;;;;;;4.20;2.90;;;21.70;56.00;;;;;;5057699;28;20032;-68
2023/09/05 02:06:40;;;;;;;6.95;3.20;;;21.70;55.90;;;;;;5061542;28;20086;-68
2023/09/05 02:09:08;;;;;;;7.05;3.03;;;21.70;55.60;;;;;;5078076;28;20429;-68
2023/09/05 02:11:34;;;;;;;8.32;3.40;;;21.70;55.80;;;;;;5077552;28;20031;-68
2023/09/05 02:14:02;;;;;;;3.83;2.88;;;21.70;56.00;;;;;;5077759;28;20069;-68
2023/09/05 02:16:33;;;;;;;7.15;3.00;;;21.70;56.00;;;;;;5077311;28;20108;-68
2023/09/05 02:18:59;;;;;;;5.25;3.10;;;21.60;56.20;;;;;;5076821;28;20377;-68
2023/09/05 02:23:53;;;;;;;4.55;2.90;;;21.60;56.40;;;;;;5078183;28;20082;-68
2023/09/05 02:26:21;;;;;;;5.65;3.03;;;21.60;56.60;;;;;;5077148;28;20028;-68
2023/09/05 02:28:51;;;;;;;8.07;2.90;;;21.50;56.60;;;;;;5076997;28;20120;-68
2023/09/05 02:31:17;;;;;;;5.55;2.80;;;21.60;56.90;;;;;;5077174;28;20034;-69
2023/09/05 02:33:44;;;;;;;4.53;2.70;;;21.60;56.90;;;;;;5077137;28;20484;-69
2023/09/05 02:38:37;;;;;;;4.45;2.90;;;21.50;56.80;;;;;;5077534;28;20056;-68
2023/09/05 02:41:05;;;;;;;5.50;2.63;;;21.50;56.80;;;;;;5076948;28;20035;-69
2023/09/05 02:45:57;;;;;;;4.30;2.55;;;21.50;57.20;;;;;;5077388;28;20024;-69
2023/09/05 02:48:23;;;;;;;4.57;2.90;;;21.50;57.50;;;;;;5076720;28;20461;-68
2023/09/05 02:51:02;;;;;;;6.13;2.90;;;21.50;57.60;;;;;;5077375;28;20118;-69
2023/09/05 02:53:28;;;;;;;4.45;2.80;;;21.40;57.80;;;;;;5077106;28;20422;-69
2023/09/05 02:55:55;;;;;;;7.35;2.85;;;21.40;57.90;;;;;;5076703;28;20043;-69
2023/09/05 02:58:21;;;;;;;4.43;2.70;;;21.40;57.90;;;;;;5076610;28;20498;-67
2023/09/05 03:00:49;;;;;;;6.97;2.78;;;21.40;57.90;;;;;;5077124;28;20044;-69
2023/09/05 03:03:16;;;;;;;5.57;2.63;;;21.40;57.90;;;;;;5076821;28;20032;-69
2023/09/05 03:05:44;;;;;;;3.47;2.50;;;21.40;57.80;;;;;;5076467;28;20104;-68
2023/09/05 03:08:10;;;;;;;5.55;2.90;;;21.40;57.80;;;;;;5076213;28;20052;-69
2023/09/05 03:10:36;;;;;;;6.10;3.13;;;21.40;58.00;;;;;;5076865;28;20035;-69
2023/09/05 03:13:03;;;;;;;5.30;3.15;;;21.40;58.10;;;;;;5076931;28;20028;-69
2023/09/05 03:15:28;;;;;;;4.82;2.83;;;21.40;58.20;;;;;;5076840;28;20050;-69
2023/09/05 03:17:54;;;;;;;4.70;2.80;;;21.40;58.30;;;;;;5076616;28;20104;-69
2023/09/05 03:20:25;;;;;;;4.35;3.10;;;21.40;58.50;;;;;;5076137;28;20024;-69
2023/09/05 03:22:53;;;;;;;6.38;3.60;;;21.40;58.50;;;;;;5076435;28;20033;-70
2023/09/05 03:25:19;;;;;;;4.53;2.53;;;21.40;58.60;;;;;;5076441;28;20086;-68
2023/09/05 03:27:45;;;;;;;6.65;2.70;;;21.40;58.70;;;;;;5076067;28;20032;-68
2023/09/05 03:30:11;;;;;;;5.30;2.80;;;21.40;58.90;;;;;;5075940;28;20025;-68
2023/09/05 03:32:39;;;;;;;5.32;2.70;;;21.40;59.00;;;;;;5076279;28;20035;-68
2023/09/05 03:35:06;;;;;;;5.07;2.60;;;21.40;59.00;;;;;;5075920;28;20017;-69
2023/09/05 03:37:32;;;;;;;4.43;2.80;;;21.30;59.10;;;;;;5076358;28;20050;-69
2023/09/05 03:39:58;;;;;;;3.75;2.47;;;21.30;59.30;;;;;;5075841;28;20385;-67
2023/09/05 03:42:24;;;;;;;4.57;2.63;;;21.30;59.30;;;;;;5076026;28;20028;-68
2023/09/05 03:44:49;;;;;;;5.60;2.95;;;21.30;59.30;;;;;;5076054;28;20032;-69
2023/09/05 03:47:15;;;;;;;3.88;2.63;;;21.30;59.20;;;;;;5075704;28;20485;-68
2023/09/05 03:49:42;;;;;;;8.20;2.88;;;21.30;59.20;;;;;;5075879;28;20461;-69
2023/09/05 03:52:08;;;;;;;4.85;2.35;;;21.20;59.20;;;;;;5075584;28;20063;-69
2023/09/05 03:57:06;;;;;;;3.63;2.60;;;21.30;59.40;;;;;;5075661;28;20091;-69
2023/09/05 03:59:31;;;;;;;5.28;2.78;;;21.20;59.30;;;;;;5075766;28;20404;-69
2023/09/05 04:01:57;;;;;;;7.22;2.88;;;21.20;59.30;;;;;;5075441;28;20499;-69
2023/09/05 04:04:23;;;;;;;9.75;3.05;;;21.30;59.40;;;;;;5075490;28;20496;-68
2023/09/05 04:06:49;;;;;;;5.47;2.70;;;21.30;59.30;;;;;;5075174;28;20049;-69
2023/09/05 04:09:15;;;;;;;5.25;2.70;;;21.30;59.20;;;;;;5075631;28;20122;-69
2023/09/05 04:11:40;;;;;;;4.07;2.55;;;21.30;59.20;;;;;;5075404;28;20039;-69
2023/09/05 04:14:06;;;;;;;6.50;2.72;;;21.30;59.20;;;;;;5075504;28;20017;-68
2023/09/05 04:16:33;;;;;;;5.07;2.50;;;21.30;59.20;;;;;;5075382;28;20074;-68
2023/09/05 04:18:59;;;;;;;4.85;2.78;;;21.30;59.30;;;;;;5075513;28;20032;-69
2023/09/05 04:21:25;;;;;;;8.25;3.13;;;21.30;59.30;;;;;;5075259;28;20028;-69
2023/09/05 04:23:50;;;;;;;9.02;2.70;;;21.30;59.30;;;;;;5075167;28;20123;-68
2023/09/05 04:26:16;;;;;;;4.97;2.97;;;21.30;59.30;;;;;;5075126;28;20043;-68
2023/09/05 04:28:42;;;;;;;4.38;2.95;;;21.30;59.20;;;;;;5075134;28;20029;-69
2023/09/05 04:31:08;;;;;;;4.22;2.75;;;21.40;59.30;;;;;;5075239;28;20035;-68
2023/09/05 04:33:40;;;;;;;4.05;2.50;;;21.40;59.30;;;;;;5075640;28;20028;-68
2023/09/05 04:36:09;;;;;;;3.90;2.40;;;21.30;59.30;;;;;;5074906;28;20442;-69
2023/09/05 04:38:36;;;;;;;4.80;2.58;;;21.40;59.40;;;;;;5075058;28;20024;-69
2023/09/05 04:41:07;;;;;;;4.05;2.28;;;21.40;59.50;;;;;;5075590;28;20025;-69
2023/09/05 04:43:33;;;;;;;4.95;2.70;;;21.40;59.40;;;;;;5074835;28;20046;-69
2023/09/05 04:45:59;;;;;;;4.07;2.72;;;21.30;59.40;;;;;;5074890;28;20074;-68
2023/09/05 04:48:25;;;;;;;3.95;2.63;;;21.40;59.20;;;;;;5075399;28;20016;-69
2023/09/05 04:50:52;;;;;;;4.60;2.60;;;21.40;59.30;;;;;;5074927;28;20352;-68
2023/09/05 04:53:18;;;;;;;4.97;2.75;;;21.40;59.60;;;;;;5074892;28;20100;-68
2023/09/05 04:55:51;;;;;;;3.40;2.60;;;21.40;60.00;;;;;;5074780;28;20033;-68
2023/09/05 05:00:49;;;;;;;4.07;2.70;;;21.30;60.10;;;;;;5075355;28;20146;-67
2023/09/05 05:03:15;;;;;;;3.92;2.38;;;21.30;60.30;;;;;;5074838;28;20525;-69
2023/09/05 05:05:41;;;;;;;4.70;2.92;;;21.30;60.70;;;;;;5075278;28;20025;-68
2023/09/05 05:08:07;;;;;;;5.85;2.97;;;21.30;60.80;;;;;;5074739;28;20067;-71
2023/09/05 05:10:38;;;;;;;4.28;2.78;;;21.20;60.90;;;;;;5074736;28;20032;-71
2023/09/05 05:13:04;;;;;;;6.10;2.90;;;21.20;61.10;;;;;;5057506;28;20029;-68
2023/09/05 05:15:30;;;;;;;4.15;2.47;;;21.30;61.00;;;;;;5075168;28;20017;-68
2023/09/05 05:17:57;;;;;;;4.90;2.80;;;21.20;60.80;;;;;;5074635;28;20074;-67
2023/09/05 05:20:24;;;;;;;6.32;3.05;;;21.20;60.70;;;;;;5075170;28;20043;-70
2023/09/05 05:22:51;;;;;;;5.25;3.00;;;21.30;60.90;;;;;;5074598;28;20033;-70
2023/09/05 05:25:17;;;;;;;4.60;2.80;;;21.30;61.10;;;;;;5074851;28;20077;-69
2023/09/05 05:27:43;;;;;;;7.88;3.47;;;21.30;61.20;;;;;;5073425;28;20073;-70
2023/09/05 05:30:10;;;;;;;5.00;2.90;;;21.30;61.40;;;;;;5073564;28;20032;-68
2023/09/05 05:32:37;;;;;;;5.28;2.88;;;21.30;61.80;;;;;;5075147;28;20067;-69
2023/09/05 05:35:04;;;;;;;4.50;2.83;;;21.40;61.00;;;;;;5074473;28;20077;-68
2023/09/05 05:37:30;;;;;;;3.97;2.88;;;21.40;60.70;;;;;;5073939;28;20063;-68
2023/09/05 05:39:56;;;;;;;5.05;2.67;;;21.40;60.40;;;;;;5074118;28;20461;-68
2023/09/05 05:42:22;;;;;;;5.68;2.85;;;21.50;60.40;;;;;;5074516;28;20043;-69
2023/09/05 05:44:48;;;;;;;5.93;2.80;;;21.50;60.20;;;;;;5074941;28;20346;-67
2023/09/05 05:47:14;;;;;;;6.63;2.97;;;21.60;59.80;;;;;;5073646;28;20028;-69
2023/09/05 05:49:39;;;;;;;4.53;2.80;;;21.60;59.70;;;;;;5065728;28;20033;-68
2023/09/05 05:52:06;;;;;;;4.63;2.60;;;21.70;59.80;;;;;;5055613;28;20021;-68
2023/09/05 05:54:35;;;;;;;4.22;2.47;;;21.70;59.80;;;;;;5074308;28;20031;-68
2023/09/05 05:57:53;;;;;;;4.40;2.78;;;21.80;59.90;;;;;;5062136;28;20020;-65
2023/09/05 06:00:19;;;;;;;5.25;2.70;;;21.90;59.70;;;;;;5067748;28;20028;-71
2023/09/05 06:02:45;;;;;;;3.75;2.75;;;22.00;59.60;;;;;;5076341;28;20454;-70
2023/09/05 06:05:11;;;;;;;6.97;3.15;;;22.00;59.50;;;;;;5076804;28;20043;-69
2023/09/05 06:07:37;;;;;;;4.35;2.65;;;22.10;59.20;;;;;;5077284;28;20102;-69
2023/09/05 06:10:08;;;;;;;3.08;2.30;;;22.20;59.10;;;;;;5073450;28;20074;-66
2023/09/05 06:12:34;;;;;;;3.17;2.35;;;22.40;59.10;;;;;;5057666;28;20021;-70
2023/09/05 06:15:00;;;;;;;3.75;2.63;;;22.40;58.90;;;;;;5058032;28;20104;-68
2023/09/05 06:17:29;;;;;;;3.88;2.38;;;22.50;58.80;;;;;;5045883;28;20459;-68
2023/09/05 06:19:57;;;;;;;5.13;2.38;;;22.60;58.80;;;;;;5075272;28;20125;-67
2023/09/05 06:22:24;;;;;;;3.17;2.35;;;22.80;58.60;;;;;;5074439;28;20027;-67
2023/09/05 06:25:01;;;;;;;3.92;2.40;;;23.00;58.20;;;;;;5069077;28;20029;-68
2023/09/05 06:27:27;;;;;;;4.57;2.42;;;23.20;57.70;;;;;;5066995;28;20032;-69
2023/09/05 06:30:46;;;;;;;4.95;2.50;;;23.60;57.20;;;;;;5076443;28;20036;-68
2023/09/05 06:34:25;;;;;;;5.85;2.33;;;24.00;56.60;;;;;;4962528;28;20043;-66
2023/09/05 06:37:40;;;;;;;3.72;2.80;;;24.60;55.50;;;;;;4899174;29;20052;-67
2023/09/05 06:40:48;;;;;;;4.10;2.45;;;25.40;54.50;;;;;;4909125;29;20142;-66
2023/09/05 06:43:47;;;;;;;5.18;2.55;;;26.00;52.80;;;;;;4917546;29;20093;-66
2023/09/05 06:47:01;;;;;;;4.72;2.42;;;26.50;51.70;;;;;;4902023;29;20362;-67
2023/09/05 06:49:36;;;;;;;4.20;2.38;;;26.80;50.50;;;;;;4910975;29;20526;-70
2023/09/05 06:52:02;;;;;;;3.85;2.35;;;26.90;49.90;;;;;;4911012;29;20036;-69
2023/09/05 06:54:30;;;;;;;2.33;2.13;;;27.00;49.60;;;;;;4913087;29;20895;-69
2023/09/05 06:56:57;;;;;;;3.03;2.30;;;27.30;48.90;;;;;;4912324;29;20477;-71
2023/09/05 06:59:24;;;;;;;3.95;2.30;;;27.60;48.30;;;;;;4914308;29;20091;-71
2023/09/05 07:01:51;;;;;;;5.72;2.45;;;27.90;47.70;;;;;;4914656;29;20825;-69
2023/09/05 07:04:20;;;;;;;3.20;2.50;;;28.70;46.80;;;;;;4912072;29;20047;-68
2023/09/05 07:06:50;;;;;;;4.97;2.50;;;29.50;44.80;;;;;;4912923;29;20048;-69
2023/09/05 07:09:16;;;;;;;5.20;2.63;;;29.80;43.20;;;;;;4941370;28;20037;-70
2023/09/05 07:11:43;;;;;;;2.97;2.35;;;29.60;42.60;;;;;;5003243;28;20038;-70
2023/09/05 07:14:10;;;;;;;3.67;2.25;;;29.80;42.90;;;;;;5065068;28;20052;-70
2023/09/05 07:16:37;;;;;;;3.78;2.50;;;30.10;42.20;;;;;;5065155;28;20020;-65
2023/09/05 07:19:04;;;;;;;5.97;2.58;;;30.10;42.00;;;;;;5069130;28;20024;-67
2023/09/05 07:22:16;;;;;;;3.38;2.58;;;30.10;41.30;;;;;;5066642;28;20511;-68
2023/09/05 07:24:43;;;;;;;6.50;3.03;;;30.00;41.10;;;;;;5067686;28;20039;-66
2023/09/05 07:27:11;;;;;;;3.88;2.72;;;30.00;40.80;;;;;;5044379;28;20394;-65
2023/09/05 07:29:41;;;;;;;5.05;2.75;;;30.40;40.20;;;;;;5064723;28;20025;-64
2023/09/05 07:32:10;;;;;;;5.43;2.85;;;30.40;40.10;;;;;;5063175;28;20029;-64
2023/09/05 07:34:43;;;;;;;7.22;2.97;;;30.00;40.30;;;;;;5061840;28;20020;-67
2023/09/05 07:37:36;;;;;;;5.20;3.33;;;29.70;41.00;;;;;;5065724;28;20028;-68
2023/09/05 07:40:07;;;;;;;;;;;29.30;40.90;;;;;;5066784;28;20063;-67
2023/09/05 07:42:42;;;;;;;6.43;2.90;;;28.80;38.80;;;;;;5067941;28;20043;-67
2023/09/05 07:45:24;;;;;;;5.68;3.17;;;28.10;40.90;;;;;;5066879;28;20083;-68
2023/09/05 07:47:52;;;;;;;4.40;3.00;;;27.50;41.50;;;;;;5068448;28;20094;-67
2023/09/05 07:50:19;;;;;;;3.97;2.80;;;27.20;42.70;;;;;;5057256;28;20354;-70
2023/09/05 07:52:45;;;;;;;3.65;2.90;;;27.20;43.10;;;;;;5075293;28;20111;-69
2023/09/05 07:55:12;;;;;;;4.20;3.15;;;27.30;43.20;;;;;;5075132;28;20112;-69
2023/09/05 07:57:39;;;;;;;4.65;2.90;;;27.20;43.10;;;;;;5075318;28;20028;-70
2023/09/05 08:00:08;;;;;;;4.60;3.15;;;27.30;43.00;;;;;;5075514;28;20024;-69
2023/09/05 08:02:37;;;;;;;4.15;2.72;;;27.30;42.90;;;;;;5075007;28;20039;-70
2023/09/05 08:05:07;;;;;;;5.03;2.90;;;27.20;42.30;;;;;;5075366;28;20060;-68
2023/09/05 08:07:33;;;;;;;3.83;2.63;;;27.10;41.80;;;;;;5075174;28;20493;-67
2023/09/05 08:10:02;;;;;;;4.78;2.80;;;27.00;42.80;;;;;;5075044;28;20021;-68
2023/09/05 08:12:28;;;;;;;3.30;2.50;;;26.90;43.00;;;;;;5074574;28;20099;-68
2023/09/05 08:14:54;;;;;;;3.22;2.70;;;26.90;43.30;;;;;;5074939;28;20507;-68
2023/09/05 08:17:20;;;;;;;4.93;2.92;;;27.00;42.70;;;;;;5074370;28;20359;-67
2023/09/05 08:19:46;;;;;;;5.32;3.08;;;26.90;42.50;;;;;;5075351;28;20032;-68
2023/09/05 08:22:12;;;;;;;5.13;2.70;;;26.90;42.70;;;;;;5074474;28;20118;-68
2023/09/05 08:24:38;;;;;;;5.03;3.10;;;27.00;43.20;;;;;;5074431;28;20037;-66
2023/09/05 08:27:05;;;;;;;5.07;2.95;;;27.20;43.20;;;;;;5073614;28;20051;-69
2023/09/05 08:29:32;;;;;;;5.80;3.03;;;27.30;42.80;;;;;;5074136;28;20032;-70
2023/09/05 08:32:01;;;;;;;4.50;2.92;;;27.40;42.50;;;;;;5074582;28;20066;-68
2023/09/05 08:34:28;;;;;;;3.92;2.72;;;27.40;42.10;;;;;;5074340;28;20386;-68
2023/09/05 08:36:54;;;;;;;4.65;2.75;;;27.60;42.00;;;;;;5073685;28;20029;-68
2023/09/05 08:39:20;;;;;;;3.50;2.58;;;27.60;42.00;;;;;;5072754;28;20107;-68
2023/09/05 08:41:46;;;;;;;4.07;2.53;;;27.80;42.10;;;;;;5074097;28;20025;-68
2023/09/05 08:44:12;;;;;;;3.58;2.80;;;27.80;42.40;;;;;;5074135;28;20035;-69
2023/09/05 08:46:40;;;;;;;4.03;2.67;;;27.90;42.30;;;;;;5073993;28;20020;-69
2023/09/05 08:49:06;;;;;;;4.45;2.50;;;28.00;41.80;;;;;;5074724;28;20095;-67
2023/09/05 08:51:36;;;;;;;3.35;2.58;;;28.00;39.10;;;;;;5073994;28;20506;-70
2023/09/05 08:54:06;;;;;;;4.18;2.60;;;27.80;38.70;;;;;;5067596;28;20024;-71
2023/09/05 08:56:33;;;;;;;4.28;2.42;;;27.60;39.30;;;;;;5074841;28;20024;-69
2023/09/05 08:59:01;;;;;;;5.28;2.70;;;27.50;39.80;;;;;;5074783;28;20446;-69
2023/09/05 09:01:29;;;;;;;3.58;2.38;;;27.50;39.70;;;;;;5074625;28;20361;-71
2023/09/05 09:03:56;;;;;;;3.95;2.40;;;27.50;39.50;;;;;;5074242;28;20064;-71
2023/09/05 09:06:24;;;;;;;4.72;2.42;;;27.40;39.90;;;;;;5056389;28;20029;-70
2023/09/05 09:08:50;;;;;;;4.85;2.70;;;27.50;39.70;;;;;;5074453;28;20039;-70
2023/09/05 09:11:19;;;;;;;4.82;2.85;;;27.50;39.00;;;;;;5074824;28;20020;-71
2023/09/05 09:13:49;;;;;;;4.68;2.90;;;27.40;39.30;;;;;;5073839;28;20029;-70
2023/09/05 09:16:19;;;;;;;7.13;2.63;;;27.30;38.20;;;;;;5074273;28;20454;-70
2023/09/05 09:19:04;;;;;;;4.63;2.70;;;27.20;39.50;;;;;;5073616;28;20032;-70
2023/09/05 09:21:31;;;;;;;3.90;2.80;;;27.20;40.00;;;;;;5055627;28;20031;-70
2023/09/05 09:23:59;;;;;;;4.60;2.45;;;27.10;40.00;;;;;;5074544;28;20074;-71
2023/09/05 09:26:26;;;;;;;5.30;2.95;;;27.20;39.40;;;;;;5063091;28;20060;-70
2023/09/05 09:28:55;;;;;;;3.63;2.72;;;27.10;39.70;;;;;;5056156;28;20380;-70
2023/09/05 09:31:26;;;;;;;5.28;2.92;;;27.10;40.10;;;;;;5057613;28;20021;-70
2023/09/05 09:33:58;;;;;;;7.80;3.33;;;27.20;39.40;;;;;;5063950;28;20017;-68
2023/09/05 09:36:39;;;;;;;7.13;3.22;;;27.00;38.90;;;;;;5077591;28;20063;-69
2023/09/05 09:39:12;;;;;;;5.72;3.03;;;26.90;38.70;;;;;;5059505;28;20028;-67
2023/09/05 09:41:47;;;;;;;3.55;2.80;;;26.80;39.60;;;;;;5075931;28;20035;-69
2023/09/05 09:44:29;;;;;;;4.88;2.90;;;26.90;40.00;;;;;;5068907;28;20108;-69
2023/09/05 09:46:56;;;;;;;5.35;2.92;;;27.00;40.30;;;;;;5054288;28;20048;-69
2023/09/05 09:49:24;;;;;;;4.20;2.90;;;27.20;40.50;;;;;;5076740;28;20024;-69
2023/09/05 09:51:56;;;;;;;4.22;2.90;;;27.30;40.30;;;;;;5075784;28;20017;-67
2023/09/05 09:54:37;;;;;;;3.42;2.80;;;27.40;40.30;;;;;;5076045;28;20335;-68
2023/09/05 09:57:05;;;;;;;3.83;2.97;;;27.30;40.20;;;;;;5075872;28;20135;-68
2023/09/05 09:59:36;;;;;;;5.07;2.90;;;27.20;39.70;;;;;;5058296;28;20028;-66
2023/09/05 10:02:07;;;;;;;3.78;2.58;;;27.10;40.00;;;;;;5075868;28;20025;-67
2023/09/05 10:04:35;;;;;;;3.88;2.85;;;27.00;40.30;;;;;;5076537;28;20028;-67
2023/09/05 10:07:06;;;;;;;3.85;2.97;;;27.00;40.80;;;;;;5077432;28;20052;-67
2023/09/05 10:09:39;;;;;;;4.50;3.10;;;26.90;40.60;;;;;;5077668;28;20029;-68
2023/09/05 10:12:06;;;;;;;4.10;3.00;;;27.00;40.80;;;;;;5060710;28;20493;-68
2023/09/05 10:14:33;;;;;;;6.22;3.15;;;27.00;40.90;;;;;;5077202;28;20061;-64
2023/09/05 10:17:00;;;;;;;3.38;2.78;;;27.00;40.80;;;;;;5076383;28;20028;-66
2023/09/05 10:19:28;;;;;;;7.10;3.20;;;26.90;40.60;;;;;;5077960;28;20319;-66
2023/09/05 10:21:58;;;;;;;4.25;2.80;;;26.90;41.20;;;;;;5057700;28;20470;-67
2023/09/05 10:24:33;;;;;;;4.43;2.92;;;27.00;41.20;;;;;;5058077;28;20017;-68
2023/09/05 10:27:00;;;;;;;3.58;2.58;;;27.20;41.10;;;;;;5057848;28;20044;-70
2023/09/05 10:29:48;;;;;;;4.70;2.80;;;27.40;41.10;;;;;;5057736;28;20025;-71
2023/09/05 10:32:17;;;;;;;4.13;2.65;;;27.60;40.30;;;;;;5077813;28;20417;-72
2023/09/05 10:34:50;;;;;;;5.32;3.08;;;27.80;40.50;;;;;;5060107;28;20036;-73
2023/09/05 10:37:22;;;;;;;;;;;27.90;40.00;;;;;;5077566;28;20044;-74
2023/09/05 10:39:57;;;;;;;4.78;3.17;;;27.90;39.70;;;;;;5027222;28;19905;-73
2023/09/05 10:42:31;;;;;;;4.60;3.00;;;27.50;39.70;;;;;;5077283;28;20028;-74
2023/09/05 10:45:15;;;;;;;3.35;2.67;;;27.40;40.40;;;;;;5077347;28;20099;-73
2023/09/05 10:47:41;;;;;;;5.78;3.10;;;27.30;40.90;;;;;;5077624;28;20418;-73
2023/09/05 10:50:08;;;;;;;5.72;2.70;;;27.30;41.10;;;;;;5076954;28;20107;-72
2023/09/05 10:52:35;;;;;;;4.50;3.20;;;27.40;41.20;;;;;;5059476;28;20103;-73
2023/09/05 10:55:32;;;;;;;6.05;3.00;;;27.40;41.20;;;;;;5077040;28;20111;-72
2023/09/05 10:57:58;;;;;;;4.97;2.80;;;27.60;40.90;;;;;;5066730;28;20032;-72
2023/09/05 11:00:37;;;;;;;4.20;3.20;;;27.80;40.90;;;;;;5076820;28;20111;-71
2023/09/05 11:03:13;;;;;;;4.53;3.00;;;28.00;40.60;;;;;;5077367;28;20028;-72
2023/09/05 11:05:41;;;;;;;7.22;3.30;;;28.10;40.20;;;;;;5059009;28;20142;-71
2023/09/05 11:08:23;;;;;;;4.65;3.00;;;28.30;40.50;;;;;;5059300;28;20127;-72
2023/09/05 11:10:53;;;;;;;3.92;2.75;;;28.40;40.20;;;;;;5076480;28;20115;-71
2023/09/05 11:13:24;;;;;;;6.25;3.17;;;28.50;40.60;;;;;;5076553;28;20028;-72
2023/09/05 11:15:58;;;;;;;3.72;2.90;;;28.60;40.80;;;;;;5076483;28;20025;-72
2023/09/05 11:18:24;;;;;;;7.20;3.13;;;28.70;40.00;;;;;;5076746;28;20035;-72
2023/09/05 11:20:50;;;;;;;5.10;2.90;;;28.70;39.90;;;;;;5076959;28;20040;-72
2023/09/05 11:23:38;;;;;;;;;;;;;;;;;;;;;
2023/09/05 11:26:10;;;;;;;4.13;3.00;;;28.30;40.10;;;;;;5069321;28;20032;-70
2023/09/05 11:28:37;;;;;;;4.18;2.88;;;28.20;40.70;;;;;;5058513;28;20446;-72
2023/09/05 11:31:04;;;;;;;4.43;3.10;;;28.30;40.50;;;;;;5076754;28;20108;-71
2023/09/05 11:33:29;;;;;;;4.45;2.80;;;28.40;40.40;;;;;;5076650;28;20032;-72
2023/09/05 11:35:55;;;;;;;4.03;2.83;;;28.40;40.80;;;;;;5076031;28;20074;-71
2023/09/05 11:38:26;;;;;;;4.90;2.60;;;28.50;40.80;;;;;;5076595;28;20020;-72
2023/09/05 11:41:01;;;;;;;6.07;3.03;;;28.60;40.80;;;;;;5075944;28;20111;-72
2023/09/05 11:43:31;;;;;;;4.53;2.85;;;28.70;41.00;;;;;;5076215;28;20021;-72
2023/09/05 11:46:06;;;;;;;5.50;2.85;;;28.90;41.00;;;;;;5075740;28;20082;-73
2023/09/05 11:48:34;;;;;;;6.05;2.95;;;28.90;41.10;;;;;;5075741;28;20511;-73
2023/09/05 11:51:00;;;;;;;4.75;2.80;;;28.90;40.80;;;;;;5075690;28;20037;-73
2023/09/05 11:53:29;;;;;;;4.95;2.67;;;29.00;41.20;;;;;;5075367;28;20062;-73
2023/09/05 11:55:57;;;;;;;4.80;3.03;;;29.10;41.30;;;;;;5075550;28;20024;-73
2023/09/05 11:58:25;;;;;;;3.92;3.33;;;29.20;41.30;;;;;;5075628;28;20059;-72
2023/09/05 12:00:53;;;;;;;5.38;3.35;;;29.10;40.00;;;;;;5075592;28;20089;-70
2023/09/05 12:03:19;;;;;;;5.65;3.20;;;29.00;40.20;;;;;;5075498;28;20029;-72
2023/09/05 12:05:51;;;;;;;5.03;3.15;;;28.90;39.20;;;;;;5057883;28;20028;-73
2023/09/05 12:08:20;;;;;;;5.25;3.13;;;28.70;39.50;;;;;;5075318;28;20078;-74
2023/09/05 12:10:53;;;;;;;7.13;3.25;;;28.60;40.10;;;;;;5075683;28;20024;-74
2023/09/05 12:13:36;;;;;;;4.18;3.30;;;28.60;40.20;;;;;;5075456;28;20028;-72
2023/09/05 12:16:03;;;;;;;4.30;3.00;;;28.60;40.20;;;;;;5075334;28;20461;-74
2023/09/05 12:18:29;;;;;;;5.30;2.90;;;28.60;40.50;;;;;;5075357;28;20406;-74
2023/09/05 12:21:02;;;;;;;3.90;2.90;;;28.70;40.60;;;;;;5075383;28;20127;-74
2023/09/05 12:23:30;;;;;;;5.50;3.00;;;28.80;40.90;;;;;;5075946;28;20024;-74
2023/09/05 12:25:57;;;;;;;4.85;3.10;;;28.90;40.80;;;;;;5075498;28;20028;-75
2023/09/05 12:28:25;;;;;;;4.60;2.95;;;29.10;41.20;;;;;;5075563;28;20032;-73
2023/09/05 12:30:55;;;;;;;6.43;3.15;;;29.20;41.20;;;;;;5075491;28;20052;-75
2023/09/05 12:33:21;;;;;;;5.82;3.53;;;29.30;41.20;;;;;;5075784;28;20020;-73
2023/09/05 12:35:47;;;;;;;3.78;2.90;;;29.30;40.30;;;;;;5075117;28;20023;-76
2023/09/05 12:38:15;;;;;;;5.22;3.28;;;29.30;40.40;;;;;;5075235;28;20020;-77
2023/09/05 12:40:43;;;;;;;4.25;3.00;;;29.20;41.00;;;;;;5075171;28;20036;-74
2023/09/05 12:43:09;;;;;;;3.47;3.00;;;29.10;39.60;;;;;;5075011;28;20036;-76
2023/09/05 12:45:35;;;;;;;5.30;3.40;;;28.90;40.00;;;;;;5075759;28;20061;-73
2023/09/05 12:48:02;;;;;;;5.20;3.63;;;28.80;40.80;;;;;;5075095;28;20032;-74
2023/09/05 12:50:29;;;;;;;5.65;3.35;;;28.70;40.50;;;;;;5075530;28;20028;-72
2023/09/05 12:53:04;;;;;;;5.03;3.28;;;28.60;40.20;;;;;;5074813;28;20028;-75
2023/09/05 12:55:34;;;;;;;5.80;3.35;;;28.60;40.00;;;;;;5074987;28;20029;-72
2023/09/05 12:58:03;;;;;;;3.25;2.90;;;28.60;40.40;;;;;;5074966;28;20025;-72
2023/09/05 13:00:29;;;;;;;4.20;3.03;;;28.70;40.40;;;;;;5075218;28;20052;-72
2023/09/05 13:02:57;;;;;;;5.05;3.40;;;28.70;40.70;;;;;;5074927;28;20032;-73
2023/09/05 13:05:23;;;;;;;6.93;3.17;;;28.70;40.60;;;;;;5078935;28;20036;-72
2023/09/05 13:07:51;;;;;;;4.70;3.22;;;28.70;40.80;;;;;;5078657;28;20087;-71
2023/09/05 13:10:16;;;;;;;4.38;3.00;;;28.60;40.50;;;;;;5079050;28;20029;-70
2023/09/05 13:12:46;;;;;;;18.17;3.80;;;28.50;40.70;;;;;;5078823;28;20099;-68
2023/09/05 13:15:12;;;;;;;6.60;3.38;;;28.50;41.00;;;;;;5079068;28;20150;-71